Time;durP1;ratioP1;P1;durP2;ratioP2;P2;SDS_P1;SDS_P2;PMS_P1;PMS_P2;Temp;Humidity;BMP_temperature;BMP_pressure;BME280_temperature;BME280_humidity;BME280_pressure;Samples;Min_cycle;Max_cycle;Signal;HPM_P1;HPM_P2
2022/03/01 00:01:24;;;;;;;6.00;2.33;;;;;;;2.03;49.20;101888.61;1780409;80;21454;-56
2022/03/01 00:03:51;;;;;;;4.67;1.70;;;;;;;1.99;49.21;101892.13;1774875;79;21034;-56
2022/03/01 00:06:17;;;;;;;5.33;2.08;;;;;;;1.99;49.31;101884.34;1771126;78;21084;-55
2022/03/01 00:08:44;;;;;;;4.62;1.95;;;;;;;1.99;49.23;101882.20;1775752;79;21090;-56
2022/03/01 00:11:11;;;;;;;6.08;1.80;;;;;;;1.96;49.73;101878.36;1761017;78;21018;-56
2022/03/01 00:13:37;;;;;;;4.47;2.00;;;;;;;1.95;49.76;101876.22;1781268;80;21025;-55
2022/03/01 00:16:05;;;;;;;5.35;2.08;;;;;;;1.98;50.16;101873.98;1785933;79;21021;-55
2022/03/01 00:18:32;;;;;;;4.62;1.57;;;;;;;1.96;50.11;101871.88;1781727;79;21566;-55
2022/03/01 00:20:58;;;;;;;4.95;1.90;;;;;;;1.98;49.72;101877.42;1782852;79;21719;-56
2022/03/01 00:23:24;;;;;;;5.35;2.05;;;;;;;1.97;49.96;101880.08;1768300;78;21041;-56
2022/03/01 00:25:51;;;;;;;5.35;2.55;;;;;;;1.97;50.19;101876.19;1774137;79;21101;-55
2022/03/01 00:28:17;;;;;;;4.78;2.02;;;;;;;1.98;50.09;101874.83;1783517;78;21030;-55
2022/03/01 00:30:44;;;;;;;4.95;2.00;;;;;;;1.97;49.85;101877.48;1765164;79;21556;-55
2022/03/01 00:33:11;;;;;;;6.97;2.37;;;;;;;1.94;50.04;101872.35;1781841;78;21546;-56
2022/03/01 00:35:37;;;;;;;4.70;1.70;;;;;;;1.89;49.95;101876.33;1777204;79;21045;-56
2022/03/01 00:38:03;;;;;;;5.90;2.15;;;;;;;1.89;50.06;101875.48;1760571;78;21065;-56
2022/03/01 00:40:30;;;;;;;4.72;1.72;;;;;;;1.87;50.14;101872.91;1764499;79;21073;-57
2022/03/01 00:42:56;;;;;;;6.78;2.15;;;;;;;1.88;50.48;101871.17;1760351;79;21010;-56
2022/03/01 00:45:23;;;;;;;4.80;1.95;;;;;;;1.88;50.67;101877.20;1766463;79;21775;-57
2022/03/01 00:47:49;;;;;;;5.45;2.15;;;;;;;1.92;50.64;101872.38;1760986;80;21093;-56
2022/03/01 00:50:15;;;;;;;5.45;1.80;;;;;;;1.91;50.40;101866.77;1768024;79;21080;-57
2022/03/01 00:52:42;;;;;;;5.60;1.87;;;;;;;1.93;50.70;101874.07;1771263;79;21038;-57
2022/03/01 00:55:09;;;;;;;6.62;2.12;;;;;;;1.91;50.88;101877.60;1765349;79;21158;-56
2022/03/01 00:57:35;;;;;;;4.33;1.65;;;;;;;1.87;50.97;101869.02;1776077;80;21780;-56
2022/03/01 01:00:04;;;;;;;4.85;1.70;;;;;;;1.86;50.80;101868.14;1775069;79;21094;-56
2022/03/01 01:02:31;;;;;;;4.30;1.80;;;;;;;1.83;51.10;101867.36;1773297;80;21695;-55
2022/03/01 01:04:57;;;;;;;5.75;1.90;;;;;;;1.80;51.08;101861.80;1763301;79;21078;-56
2022/03/01 01:07:25;;;;;;;6.28;1.80;;;;;;;1.78;51.39;101871.78;1762600;79;21030;-55
2022/03/01 01:09:52;;;;;;;5.00;1.77;;;;;;;1.80;51.75;101862.22;1767460;79;21962;-56
2022/03/01 01:12:18;;;;;;;5.95;2.30;;;;;;;1.78;51.33;101873.08;1759433;79;21050;-55
2022/03/01 01:14:47;;;;;;;7.12;2.52;;;;;;;1.77;51.81;101871.39;1778303;79;21098;-56
2022/03/01 01:17:13;;;;;;;6.92;2.25;;;;;;;1.77;51.95;101881.32;1778344;79;21114;-56
2022/03/01 01:19:39;;;;;;;5.05;1.95;;;;;;;1.80;51.99;101886.88;1781870;79;21084;-56
2022/03/01 01:24:50;;;;;;;9.10;2.30;;;;;;;1.77;52.90;101882.62;1778449;80;21082;-56
2022/03/01 01:27:17;;;;;;;5.10;1.77;;;;;;;1.74;53.41;101883.97;1763111;80;21122;-56
2022/03/01 01:29:43;;;;;;;5.42;2.05;;;;;;;1.74;53.58;101889.16;1760477;79;21093;-57
2022/03/01 01:32:10;;;;;;;6.92;2.12;;;;;;;1.74;53.65;101893.50;1760200;80;21611;-55
2022/03/01 01:34:37;;;;;;;7.08;2.55;;;;;;;1.73;53.66;101886.17;1792855;79;21513;-57
2022/03/01 01:37:04;;;;;;;6.70;2.20;;;;;;;1.71;53.63;101881.88;1794939;79;21017;-56
2022/03/01 01:39:31;;;;;;;6.03;1.98;;;;;;;1.74;53.64;101885.72;1774829;79;21116;-57
2022/03/01 01:41:57;;;;;;;6.17;2.08;;;;;;;1.70;53.75;101884.92;1743778;80;21060;-56
2022/03/01 01:44:23;;;;;;;8.60;2.15;;;;;;;1.73;54.00;101886.17;1777875;78;21053;-56
2022/03/01 01:46:50;;;;;;;4.92;1.95;;;;;;;1.72;54.32;101882.30;1762353;78;21958;-55
2022/03/01 01:49:17;;;;;;;5.72;1.87;;;;;;;1.70;54.57;101884.92;1760260;78;21033;-55
2022/03/01 01:51:43;;;;;;;6.65;1.85;;;;;;;1.67;55.28;101890.17;1766913;80;21532;-56
2022/03/01 01:54:10;;;;;;;4.00;1.57;;;;;;;1.63;55.51;101882.89;1778437;78;21013;-56
2022/03/01 01:56:36;;;;;;;9.00;2.12;;;;;;;1.59;55.96;101884.27;1779205;79;21033;-56
2022/03/01 01:59:03;;;;;;;5.87;2.20;;;;;;;1.59;56.11;101879.07;1786280;78;21097;-56
2022/03/01 02:01:30;;;;;;;5.67;2.12;;;;;;;1.51;56.63;101884.39;1787273;80;21484;-56
2022/03/01 02:03:56;;;;;;;5.00;2.00;;;;;;;1.47;56.81;101887.48;1787889;78;21041;-56
2022/03/01 02:06:23;;;;;;;7.22;2.30;;;;;;;1.43;57.58;101890.16;1789061;80;21751;-56
2022/03/01 02:08:50;;;;;;;5.70;2.20;;;;;;;1.40;58.16;101886.34;1774342;79;21041;-55
2022/03/01 02:11:17;;;;;;;9.68;2.10;;;;;;;1.32;59.57;101885.62;1787668;80;21559;-56
2022/03/01 02:13:43;;;;;;;5.75;2.33;;;;;;;1.26;59.54;101888.73;1793112;78;21088;-56
2022/03/01 02:16:10;;;;;;;6.53;1.95;;;;;;;1.21;60.37;101884.48;1777376;79;21461;-56
2022/03/01 02:18:37;;;;;;;7.70;2.75;;;;;;;1.13;60.89;101882.05;1772674;80;21072;-56
2022/03/01 02:21:04;;;;;;;4.75;1.65;;;;;;;1.10;61.18;101882.09;1767738;78;21044;-57
2022/03/01 02:23:30;;;;;;;5.75;2.08;;;;;;;1.06;61.58;101879.99;1776410;78;21142;-56
2022/03/01 02:25:56;;;;;;;5.35;1.87;;;;;;;1.04;61.70;101873.11;1765967;78;21457;-59
2022/03/01 02:28:23;;;;;;;6.45;2.55;;;;;;;1.03;62.08;101875.30;1776994;78;21314;-56
2022/03/01 02:30:49;;;;;;;5.80;2.10;;;;;;;1.00;62.89;101873.59;1774387;78;21776;-56
2022/03/01 02:33:16;;;;;;;6.60;2.75;;;;;;;0.92;63.51;101871.15;1774048;78;21049;-56
2022/03/01 02:35:42;;;;;;;7.03;1.90;;;;;;;0.88;63.95;101878.99;1775719;79;21109;-56
2022/03/01 02:38:08;;;;;;;6.30;2.20;;;;;;;0.87;64.48;101875.52;1768903;80;21449;-57
2022/03/01 02:40:35;;;;;;;6.92;2.65;;;;;;;0.82;64.90;101875.19;1785556;78;21076;-56
2022/03/01 02:43:02;;;;;;;6.65;2.60;;;;;;;0.78;65.21;101871.79;1784411;79;21600;-59
2022/03/01 02:45:29;;;;;;;4.97;2.15;;;;;;;0.78;65.54;101870.95;1777799;79;21108;-57
2022/03/01 02:47:55;;;;;;;8.03;2.55;;;;;;;0.78;65.82;101870.50;1807072;79;21934;-56
2022/03/01 02:50:22;;;;;;;7.15;2.75;;;;;;;0.76;66.09;101864.48;1785924;78;21100;-57
2022/03/01 02:52:48;;;;;;;5.87;2.60;;;;;;;0.76;66.04;101872.68;1779234;80;21590;-56
2022/03/01 02:55:14;;;;;;;4.83;2.08;;;;;;;0.75;66.10;101866.66;1765021;78;21100;-57
2022/03/01 02:57:41;;;;;;;4.35;1.90;;;;;;;0.75;66.15;101861.47;1777843;80;21100;-56
2022/03/01 03:00:10;;;;;;;8.95;2.37;;;;;;;0.73;66.24;101863.23;1780101;78;21166;-57
2022/03/01 03:02:36;;;;;;;7.72;2.92;;;;;;;0.70;66.17;101856.35;1782286;79;21092;-56
2022/03/01 03:05:06;;;;;;;6.45;2.52;;;;;;;0.67;66.33;101858.14;1786362;78;21520;-57
2022/03/01 03:07:33;;;;;;;6.87;2.65;;;;;;;0.67;66.22;101855.12;1790033;78;21104;-56
2022/03/01 03:09:59;;;;;;;6.42;2.75;;;;;;;0.67;66.23;101853.83;1777820;78;21029;-57
2022/03/01 03:12:26;;;;;;;7.22;3.05;;;;;;;0.65;66.48;101858.61;1776560;78;21046;-57
2022/03/01 03:14:52;;;;;;;8.35;3.80;;;;;;;0.61;66.97;101853.07;1790911;78;21045;-57
2022/03/01 03:17:19;;;;;;;8.23;3.87;;;;;;;0.57;67.04;101847.05;1774431;78;21052;-56
2022/03/01 03:19:46;;;;;;;8.05;4.50;;;;;;;0.50;67.21;101842.40;1773897;78;21520;-56
2022/03/01 03:22:13;;;;;;;9.33;4.67;;;;;;;0.50;67.21;101842.40;1768570;80;21053;-56
2022/03/01 03:24:40;;;;;;;10.58;5.22;;;;;;;0.47;67.91;101846.36;1776752;78;21131;-57
2022/03/01 03:27:06;;;;;;;8.78;4.17;;;;;;;0.46;67.89;101844.63;1757784;80;21108;-56
2022/03/01 03:29:33;;;;;;;9.48;4.75;;;;;;;0.46;67.89;101844.63;1793010;78;21163;-56
2022/03/01 03:32:00;;;;;;;7.60;4.50;;;;;;;0.44;68.29;101845.52;1783944;78;22250;-56
2022/03/01 03:34:26;;;;;;;7.37;3.83;;;;;;;0.43;69.27;101840.78;1794589;78;21068;-56
2022/03/01 03:36:54;;;;;;;8.73;3.70;;;;;;;0.42;69.56;101838.22;1794793;78;21127;-56
2022/03/01 03:39:20;;;;;;;9.00;4.37;;;;;;;0.37;70.10;101833.13;1802860;78;22111;-56
2022/03/01 03:41:48;;;;;;;8.10;3.92;;;;;;;0.37;70.10;101833.13;1775832;78;21481;-56
2022/03/01 03:44:14;;;;;;;10.03;4.55;;;;;;;0.38;70.46;101827.05;1784400;78;21109;-56
2022/03/01 03:46:40;;;;;;;10.58;5.37;;;;;;;0.38;70.46;101827.05;1765346;79;21630;-55
2022/03/01 03:49:07;;;;;;;12.35;4.35;;;;;;;0.35;70.41;101826.67;1759346;80;21113;-57
2022/03/01 03:51:34;;;;;;;11.15;4.25;;;;;;;0.34;70.42;101819.77;1769991;78;21085;-57
2022/03/01 03:54:02;;;;;;;8.28;4.40;;;;;;;0.34;70.48;101822.81;1774730;80;21505;-56
2022/03/01 03:56:29;;;;;;;7.97;4.33;;;;;;;0.38;70.29;101821.03;1771490;78;21097;-56
2022/03/01 03:58:57;;;;;;;10.08;5.28;;;;;;;0.35;70.31;101817.61;1778439;79;21041;-56
2022/03/01 04:01:23;;;;;;;8.48;5.10;;;;;;;0.31;70.49;101806.02;1784434;78;21516;-56
2022/03/01 04:03:51;;;;;;;9.38;5.28;;;;;;;0.31;70.53;101809.90;1772964;78;21453;-56
2022/03/01 04:06:17;;;;;;;11.28;5.10;;;;;;;0.33;70.55;101809.44;1771195;78;21037;-56
2022/03/01 04:08:44;;;;;;;9.60;4.65;;;;;;;0.35;70.42;101804.66;1768131;80;21054;-56
2022/03/01 04:11:10;;;;;;;9.18;4.95;;;;;;;0.34;70.41;101808.56;1775050;79;21053;-56
2022/03/01 04:13:37;;;;;;;10.40;4.78;;;;;;;0.34;70.46;101805.98;1757565;81;21130;-56
2022/03/01 04:16:04;;;;;;;9.33;5.50;;;;;;;0.34;70.38;101799.05;1784304;78;21489;-56
2022/03/01 04:18:31;;;;;;;9.08;4.37;;;;;;;0.36;70.41;101799.88;1793025;78;21077;-56
2022/03/01 04:20:57;;;;;;;9.58;4.92;;;;;;;0.40;70.34;101795.95;1774419;80;21053;-58
2022/03/01 04:23:23;;;;;;;8.03;3.92;;;;;;;0.41;70.32;101795.09;1786223;80;20992;-56
2022/03/01 04:25:50;;;;;;;9.65;4.53;;;;;;;0.41;70.29;101793.34;1785745;79;21139;-56
2022/03/01 04:28:17;;;;;;;9.13;4.28;;;;;;;0.41;70.52;101802.41;1781550;78;21066;-56
2022/03/01 04:30:44;;;;;;;9.95;3.90;;;;;;;0.40;70.32;101797.25;1735136;80;21103;-56
2022/03/01 04:33:10;;;;;;;8.98;3.85;;;;;;;0.42;70.53;101800.25;1749427;79;21066;-57
2022/03/01 04:35:37;;;;;;;8.00;3.80;;;;;;;0.46;70.29;101797.17;1750947;80;21035;-56
2022/03/01 04:38:04;;;;;;;7.70;3.65;;;;;;;0.45;70.33;101803.22;1745103;81;21104;-56
2022/03/01 04:40:31;;;;;;;9.93;4.50;;;;;;;0.43;70.11;101799.34;1758730;80;21008;-56
2022/03/01 04:42:58;;;;;;;7.92;3.85;;;;;;;0.41;70.22;101800.27;1757969;79;21576;-56
2022/03/01 04:45:24;;;;;;;8.85;3.80;;;;;;;0.39;70.24;101804.59;1761111;80;21180;-56
2022/03/01 04:47:51;;;;;;;6.62;3.17;;;;;;;0.36;70.33;101803.77;1765296;80;21097;-56
2022/03/01 04:50:18;;;;;;;8.90;4.55;;;;;;;0.38;70.23;101807.63;1764710;80;21098;-56
2022/03/01 04:52:44;;;;;;;9.23;4.83;;;;;;;0.40;70.29;101806.31;1761879;80;21620;-57
2022/03/01 04:55:11;;;;;;;6.37;3.00;;;;;;;0.41;70.22;101806.74;1771756;80;21030;-55
2022/03/01 04:57:37;;;;;;;8.08;3.65;;;;;;;0.41;70.22;101806.74;1770375;80;21054;-56
2022/03/01 05:00:10;;;;;;;7.28;4.10;;;;;;;0.40;70.38;101813.63;1775414;80;21081;-57
2022/03/01 05:02:45;;;;;;;8.48;3.67;;;;;;;0.39;70.29;101811.95;1776092;80;21045;-57
2022/03/01 05:05:13;;;;;;;8.05;3.92;;;;;;;0.39;70.29;101811.95;1771169;80;21110;-57
2022/03/01 05:07:44;;;;;;;10.98;4.17;;;;;;;0.37;70.37;101809.83;1766311;79;21080;-56
2022/03/01 05:10:12;;;;;;;10.03;3.72;;;;;;;0.38;70.20;101812.80;1782935;78;21564;-57
2022/03/01 05:12:55;;;;;;;8.90;4.75;;;;;;;0.38;70.21;101806.78;1782058;80;23249;-56
2022/03/01 05:15:23;;;;;;;7.42;3.98;;;;;;;0.38;70.17;101814.55;1775799;79;21136;-57
2022/03/01 05:17:49;;;;;;;8.70;4.30;;;;;;;0.38;70.17;101814.55;1776281;78;21521;-55
2022/03/01 05:20:17;;;;;;;8.78;4.60;;;;;;;0.33;70.35;101802.51;1780913;80;21097;-59
2022/03/01 05:22:44;;;;;;;8.95;4.90;;;;;;;0.34;70.45;101805.98;1780777;80;21009;-56
2022/03/01 05:25:13;;;;;;;9.18;4.58;;;;;;;0.34;70.45;101805.98;1780772;79;21549;-56
2022/03/01 05:27:42;;;;;;;8.45;4.58;;;;;;;0.35;70.44;101806.37;1784146;78;21751;-56
2022/03/01 05:30:11;;;;;;;9.13;4.92;;;;;;;0.38;70.48;101801.60;1780645;78;21612;-57
2022/03/01 05:32:40;;;;;;;8.58;4.70;;;;;;;0.38;70.48;101801.60;1774848;79;21105;-55
2022/03/01 05:35:10;;;;;;;10.95;5.62;;;;;;;0.38;70.59;101802.45;1777284;78;21112;-56
2022/03/01 05:37:38;;;;;;;8.63;4.37;;;;;;;0.38;70.59;101802.45;1778020;80;21074;-56
2022/03/01 05:40:06;;;;;;;11.57;5.17;;;;;;;0.40;70.45;101799.39;1780969;78;21573;-56
2022/03/01 05:42:34;;;;;;;7.90;4.17;;;;;;;0.38;70.56;101797.27;1783152;79;20995;-56
2022/03/01 05:45:01;;;;;;;10.28;5.53;;;;;;;0.39;70.60;101789.93;1778234;79;21057;-56
2022/03/01 05:47:27;;;;;;;9.33;4.75;;;;;;;0.38;70.87;101780.44;1773011;79;21098;-55
2022/03/01 05:49:54;;;;;;;11.03;5.60;;;;;;;0.38;70.87;101780.44;1766616;80;21041;-57
2022/03/01 05:52:21;;;;;;;9.20;4.37;;;;;;;0.41;70.68;101773.92;1772737;80;21732;-57
2022/03/01 05:54:48;;;;;;;8.35;4.78;;;;;;;0.42;70.93;101782.13;1773666;80;21541;-56
2022/03/01 05:57:14;;;;;;;10.40;4.40;;;;;;;0.43;70.85;101774.75;1783860;78;21085;-56
2022/03/01 05:59:41;;;;;;;10.90;5.25;;;;;;;0.45;70.97;101778.16;1791090;80;21492;-56
2022/03/01 06:02:07;;;;;;;8.50;4.35;;;;;;;0.52;70.77;101790.16;1785914;78;21057;-56
2022/03/01 06:04:34;;;;;;;10.40;4.75;;;;;;;0.57;70.73;101787.92;1785953;80;21446;-56
2022/03/01 06:07:00;;;;;;;10.48;4.50;;;;;;;0.60;70.48;101787.88;1783980;78;21097;-57
2022/03/01 06:09:27;;;;;;;9.08;5.10;;;;;;;0.65;70.48;101793.39;1782631;78;20998;-56
2022/03/01 06:11:53;;;;;;;8.25;4.03;;;;;;;0.72;70.35;101790.27;1789951;78;21207;-57
2022/03/01 06:14:21;;;;;;;10.25;4.40;;;;;;;0.77;70.18;101791.03;1785944;78;21073;-57
2022/03/01 06:16:47;;;;;;;7.47;3.85;;;;;;;0.78;70.22;101797.09;1790812;78;21115;-55
2022/03/01 06:19:14;;;;;;;7.40;3.80;;;;;;;0.82;70.10;101787.93;1792235;78;21503;-55
2022/03/01 06:21:41;;;;;;;6.58;3.47;;;;;;;0.82;70.10;101787.93;1779201;80;21077;-56
2022/03/01 06:24:07;;;;;;;9.60;3.87;;;;;;;0.89;69.57;101787.38;1791415;78;21047;-56
2022/03/01 06:26:35;;;;;;;7.80;3.47;;;;;;;0.89;69.57;101787.38;1787876;80;21572;-56
2022/03/01 06:29:01;;;;;;;9.18;4.53;;;;;;;0.88;69.60;101782.66;1792378;79;21113;-56
2022/03/01 06:31:28;;;;;;;6.87;3.27;;;;;;;0.91;69.57;101782.60;1790804;78;21164;-56
2022/03/01 06:33:56;;;;;;;7.75;3.00;;;;;;;0.91;69.46;101790.38;1781978;78;21579;-56
2022/03/01 06:36:24;;;;;;;9.53;3.60;;;;;;;0.95;69.47;101790.33;1789132;78;21687;-56
2022/03/01 06:38:52;;;;;;;7.90;3.65;;;;;;;0.95;69.35;101787.73;1789188;78;21042;-56
2022/03/01 06:41:19;;;;;;;8.28;3.75;;;;;;;0.97;69.35;101792.45;1788707;78;21117;-55
2022/03/01 06:43:45;;;;;;;7.55;3.27;;;;;;;0.94;69.02;101785.56;1794381;78;21115;-56
2022/03/01 06:46:13;;;;;;;6.65;2.87;;;;;;;0.97;69.40;101800.22;1791934;78;21082;-55
2022/03/01 06:48:39;;;;;;;6.87;3.20;;;;;;;0.97;69.35;101798.48;1791214;78;21079;-55
2022/03/01 06:51:07;;;;;;;5.80;2.58;;;;;;;1.00;69.32;101790.66;1790713;78;21645;-55
2022/03/01 06:53:36;;;;;;;7.20;3.08;;;;;;;1.03;69.41;101794.94;1792311;79;21132;-55
2022/03/01 06:56:03;;;;;;;7.05;3.22;;;;;;;1.03;69.41;101794.94;1791068;79;21020;-57
2022/03/01 06:58:31;;;;;;;6.55;3.22;;;;;;;1.02;69.43;101798.41;1772112;79;21058;-56
2022/03/01 07:01:00;;;;;;;6.05;3.10;;;;;;;1.02;69.71;101799.70;1790106;78;21047;-55
2022/03/01 07:03:25;;;;;;;12.45;3.15;;;;;;;1.03;69.56;101800.13;1761425;81;20998;-56
2022/03/01 07:05:52;;;;;;;9.70;2.80;;;;;;;1.07;69.60;101801.77;1794366;78;21527;-56
2022/03/01 07:08:20;;;;;;;6.15;2.58;;;;;;;1.15;69.60;101799.05;1793609;79;20983;-57
2022/03/01 07:10:47;;;;;;;6.65;3.12;;;;;;;1.13;69.64;101800.80;1792814;78;21084;-57
2022/03/01 07:13:14;;;;;;;8.63;3.30;;;;;;;1.13;69.58;101796.48;1792629;78;21056;-56
2022/03/01 07:15:40;;;;;;;9.35;3.08;;;;;;;1.13;69.57;101797.78;1794239;79;21112;-57
2022/03/01 07:18:07;;;;;;;5.37;2.62;;;;;;;1.14;69.10;101797.33;1790178;79;21146;-56
2022/03/01 07:20:35;;;;;;;5.83;2.75;;;;;;;1.12;69.25;101796.06;1789465;78;21048;-56
2022/03/01 07:23:03;;;;;;;5.28;2.27;;;;;;;1.16;68.92;101795.14;1792958;78;21059;-57
2022/03/01 07:25:29;;;;;;;6.87;2.52;;;;;;;1.24;68.77;101794.53;1787392;79;21084;-56
2022/03/01 07:27:56;;;;;;;7.10;3.27;;;;;;;1.25;68.68;101797.55;1784710;79;21029;-57
2022/03/01 07:30:24;;;;;;;7.35;3.05;;;;;;;1.24;68.55;101794.98;1770001;78;21128;-56
2022/03/01 07:32:55;;;;;;;7.30;3.02;;;;;;;1.22;68.82;101796.30;1766733;79;21810;-56
2022/03/01 07:35:22;;;;;;;6.90;2.83;;;;;;;1.22;68.74;101795.00;1760472;79;21067;-56
2022/03/01 07:37:48;;;;;;;7.50;2.85;;;;;;;1.19;68.91;101794.20;1789595;79;21037;-56
2022/03/01 07:40:15;;;;;;;6.70;3.17;;;;;;;1.26;68.74;101800.56;1784331;78;21525;-56
2022/03/01 07:42:42;;;;;;;6.35;3.10;;;;;;;1.30;68.63;101797.47;1778207;78;21128;-56
2022/03/01 07:45:09;;;;;;;6.10;2.70;;;;;;;1.34;68.61;101804.75;1739318;81;21109;-56
2022/03/01 07:47:36;;;;;;;5.87;2.72;;;;;;;1.31;68.50;101804.34;1758605;78;21133;-56
2022/03/01 07:50:03;;;;;;;7.45;2.52;;;;;;;1.30;68.25;101802.20;1777390;80;21136;-56
2022/03/01 07:52:29;;;;;;;7.65;2.75;;;;;;;1.29;68.69;101796.63;1767308;79;21450;-57
2022/03/01 07:54:56;;;;;;;6.72;3.37;;;;;;;1.29;68.69;101796.63;1765528;79;21110;-56
2022/03/01 07:57:22;;;;;;;7.05;3.20;;;;;;;1.33;68.13;101788.76;1770490;78;21598;-56
2022/03/01 07:59:48;;;;;;;7.92;2.85;;;;;;;1.33;67.82;101800.43;1791333;78;21104;-57
2022/03/01 08:02:15;;;;;;;5.75;2.98;;;;;;;1.33;67.91;101796.54;1783221;78;21564;-56
2022/03/01 08:04:42;;;;;;;6.15;2.98;;;;;;;1.35;67.78;101794.80;1791026;78;21432;-56
2022/03/01 08:07:09;;;;;;;7.90;3.60;;;;;;;1.40;67.85;101790.38;1792636;78;21124;-55
2022/03/01 08:09:37;;;;;;;6.95;2.87;;;;;;;1.45;67.79;101789.39;1789755;78;21092;-55
2022/03/01 08:12:05;;;;;;;7.00;3.20;;;;;;;1.54;67.41;101788.80;1774172;78;21041;-55
2022/03/01 08:14:34;;;;;;;7.17;3.22;;;;;;;1.60;67.06;101792.58;1759758;80;21085;-55
2022/03/01 08:17:01;;;;;;;7.50;3.40;;;;;;;1.56;67.19;101791.76;1795170;78;21114;-55
2022/03/01 08:19:30;;;;;;;7.87;4.12;;;;;;;1.57;67.28;101792.19;1776903;79;21547;-55
2022/03/01 08:21:56;;;;;;;9.18;4.08;;;;;;;1.55;67.05;101786.63;1762688;79;21579;-56
2022/03/01 08:24:23;;;;;;;7.87;3.22;;;;;;;1.54;67.15;101788.34;1764112;80;21093;-55
2022/03/01 08:26:49;;;;;;;5.78;2.80;;;;;;;1.48;67.09;101784.59;1764317;79;21133;-55
2022/03/01 08:29:17;;;;;;;6.53;3.47;;;;;;;1.48;67.21;101782.84;1770134;80;21073;-56
2022/03/01 08:31:43;;;;;;;6.80;3.58;;;;;;;1.50;67.11;101785.42;1767948;80;21139;-55
2022/03/01 08:34:10;;;;;;;8.63;3.17;;;;;;;1.51;67.12;101783.67;1776467;78;21763;-55
2022/03/01 08:36:37;;;;;;;6.55;3.60;;;;;;;1.49;67.09;101782.40;1781646;79;21021;-55
2022/03/01 08:39:04;;;;;;;6.70;3.70;;;;;;;1.49;67.18;101781.10;1781064;78;21066;-56
2022/03/01 08:41:31;;;;;;;8.00;3.10;;;;;;;1.49;67.18;101781.10;1777012;78;21030;-55
2022/03/01 08:43:58;;;;;;;9.73;4.03;;;;;;;1.47;67.02;101781.58;1778644;78;21136;-55
2022/03/01 08:46:24;;;;;;;7.28;3.42;;;;;;;1.41;67.10;101772.19;1775531;80;21744;-57
2022/03/01 08:48:53;;;;;;;6.75;3.05;;;;;;;1.43;67.38;101776.90;1779247;78;20999;-57
2022/03/01 08:51:21;;;;;;;7.28;3.60;;;;;;;1.50;67.31;101768.55;1774947;79;21082;-56
2022/03/01 08:53:51;;;;;;;8.20;3.85;;;;;;;1.52;67.13;101775.86;1774478;80;21114;-58
2022/03/01 08:56:17;;;;;;;8.10;3.65;;;;;;;1.54;67.07;101766.75;1773508;79;21080;-55
2022/03/01 08:58:44;;;;;;;11.48;3.83;;;;;;;1.53;67.09;101760.72;1780592;80;21580;-56
2022/03/01 09:01:10;;;;;;;8.83;4.08;;;;;;;1.54;67.16;101768.89;1778914;79;21093;-57
2022/03/01 09:04:22;;;;;;;8.93;4.40;;;;;;;1.57;67.18;101762.34;1868051;75;22622;-56
2022/03/01 09:06:49;;;;;;;8.25;4.12;;;;;;;1.55;67.16;101765.87;1838296;77;21519;-57
2022/03/01 09:09:15;;;;;;;7.25;3.40;;;;;;;1.53;67.15;101773.69;1834236;76;21120;-57
2022/03/01 09:11:42;;;;;;;6.40;3.45;;;;;;;1.54;67.25;101779.27;1834364;76;21515;-57
2022/03/01 09:14:08;;;;;;;8.20;3.40;;;;;;;1.60;66.98;101779.61;1829974;76;21017;-57
2022/03/01 09:16:35;;;;;;;7.75;3.98;;;;;;;1.65;66.88;101785.56;1833161;76;21517;-57
2022/03/01 09:19:02;;;;;;;7.67;3.80;;;;;;;1.70;66.95;101791.92;1831137;77;21029;-57
2022/03/01 09:21:28;;;;;;;7.62;3.67;;;;;;;1.73;66.74;101784.08;1828746;76;21127;-57
2022/03/01 09:23:56;;;;;;;9.03;4.00;;;;;;;1.81;66.72;101780.44;1838714;77;20966;-57
2022/03/01 09:26:22;;;;;;;7.87;3.65;;;;;;;1.86;66.55;101774.70;1837286;76;20994;-57
2022/03/01 09:28:49;;;;;;;8.08;3.40;;;;;;;1.92;66.42;101768.55;1830021;77;21105;-57
2022/03/01 09:31:16;;;;;;;8.40;3.90;;;;;;;1.94;65.86;101770.66;1839730;76;20997;-58
2022/03/01 09:33:45;;;;;;;7.10;3.33;;;;;;;1.94;65.91;101769.36;1833516;77;21125;-58
2022/03/01 09:36:13;;;;;;;8.05;4.17;;;;;;;1.96;65.70;101768.03;1835496;76;21042;-58
2022/03/01 09:38:40;;;;;;;7.05;3.50;;;;;;;1.98;65.70;101768.84;1823800;76;21102;-57
2022/03/01 09:41:08;;;;;;;8.70;4.28;;;;;;;1.99;65.69;101770.11;1836234;76;21109;-57
2022/03/01 09:43:38;;;;;;;7.33;3.85;;;;;;;2.03;65.59;101765.70;1841382;77;20976;-57
2022/03/01 09:46:06;;;;;;;9.28;4.85;;;;;;;2.06;65.65;101763.49;1826779;76;21214;-58
2022/03/01 09:48:32;;;;;;;9.63;3.92;;;;;;;2.08;64.90;101761.25;1829078;77;21048;-58
2022/03/01 09:51:03;;;;;;;7.87;3.80;;;;;;;2.10;65.17;101753.43;1829806;77;21093;-58
2022/03/01 09:53:29;;;;;;;7.67;4.12;;;;;;;2.15;65.06;101758.95;1832874;77;21083;-57
2022/03/01 09:55:56;;;;;;;7.90;4.20;;;;;;;2.17;65.01;101754.56;1836200;76;21100;-57
2022/03/01 09:58:23;;;;;;;6.92;3.83;;;;;;;2.23;64.60;101756.16;1809840;77;21090;-57
2022/03/01 10:00:49;;;;;;;7.65;4.17;;;;;;;2.21;64.54;101753.59;1837505;76;21038;-57
2022/03/01 10:03:17;;;;;;;8.55;3.90;;;;;;;2.25;64.74;101747.03;1821260;76;21089;-57
2022/03/01 10:05:43;;;;;;;8.75;4.75;;;;;;;2.27;64.74;101746.13;1788652;78;21068;-59
2022/03/01 10:08:18;;;;;;;7.03;3.65;;;;;;;2.30;64.61;101744.73;1789108;78;21050;-58
2022/03/01 10:10:53;;;;;;;10.20;4.70;;;;;;;2.33;64.55;101748.55;1800843;79;21038;-58
2022/03/01 10:13:27;;;;;;;8.25;4.47;;;;;;;2.35;64.47;101750.66;1771775;78;20975;-58
2022/03/01 10:16:16;;;;;;;6.92;3.95;;;;;;;2.38;64.50;101739.36;1777248;80;21525;-58
2022/03/01 10:18:53;;;;;;;9.18;3.87;;;;;;;2.39;64.32;101742.37;1779595;80;21550;-57
2022/03/01 10:21:22;;;;;;;8.00;4.53;;;;;;;2.36;64.02;101732.91;1774649;78;21485;-57
2022/03/01 10:23:54;;;;;;;8.50;4.00;;;;;;;2.35;64.17;101741.58;1777642;80;21123;-57
2022/03/01 10:26:29;;;;;;;7.97;4.25;;;;;;;2.35;64.18;101733.78;1773578;80;21034;-57
2022/03/01 10:28:57;;;;;;;8.75;4.12;;;;;;;2.36;64.11;101730.30;1773866;80;21078;-57
2022/03/01 10:31:29;;;;;;;9.63;4.30;;;;;;;2.37;63.98;101730.73;1789476;78;21063;-58
2022/03/01 10:34:05;;;;;;;11.08;4.58;;;;;;;2.38;63.93;101724.62;1783853;78;21002;-58
2022/03/01 10:36:46;;;;;;;7.47;4.37;;;;;;;2.40;63.94;101723.28;1788596;78;21051;-57
2022/03/01 10:39:22;;;;;;;9.08;4.78;;;;;;;2.40;63.82;101724.16;1798717;78;21060;-57
2022/03/01 10:41:50;;;;;;;11.10;4.53;;;;;;;2.40;63.92;101725.46;1772588;79;21090;-57
2022/03/01 10:44:22;;;;;;;8.95;4.47;;;;;;;2.41;63.59;101729.75;1768833;80;21002;-58
2022/03/01 10:46:55;;;;;;;8.35;4.17;;;;;;;2.43;63.84;101724.97;1764484;78;21050;-58
2022/03/01 10:49:27;;;;;;;9.30;4.42;;;;;;;2.45;64.03;101711.03;1779183;79;21816;-58
2022/03/01 10:52:07;;;;;;;8.55;4.15;;;;;;;2.49;63.97;101712.68;1771300;80;21050;-57
2022/03/01 10:54:44;;;;;;;9.00;3.60;;;;;;;2.51;64.13;101716.09;1777404;79;21035;-56
2022/03/01 10:57:23;;;;;;;8.75;4.17;;;;;;;2.53;63.92;101712.16;1737376;80;21071;-58
2022/03/01 10:59:50;;;;;;;7.50;3.25;;;;;;;2.53;63.73;101713.45;1776428;79;21053;-57
2022/03/01 11:02:19;;;;;;;12.85;4.17;;;;;;;2.51;63.67;101716.09;1743418;80;21015;-58
2022/03/01 11:04:49;;;;;;;7.45;3.92;;;;;;;2.49;63.86;101707.48;1772352;79;21573;-57
2022/03/01 11:07:19;;;;;;;7.12;3.77;;;;;;;2.53;64.02;101713.45;1777052;78;21012;-57
2022/03/01 11:09:50;;;;;;;8.95;3.67;;;;;;;2.54;64.07;101703.45;1747176;80;21022;-57
2022/03/01 11:12:21;;;;;;;8.20;4.47;;;;;;;2.57;64.13;101705.97;1769024;80;21054;-57
2022/03/01 11:15:08;;;;;;;11.40;5.00;;;;;;;2.60;64.14;101701.55;1776976;78;21147;-57
2022/03/01 11:17:57;;;;;;;8.63;4.33;;;;;;;2.63;64.08;101703.69;1763616;78;21541;-57
2022/03/01 11:20:35;;;;;;;8.60;4.40;;;;;;;2.62;64.16;101697.61;1770866;78;21097;-58
2022/03/01 11:23:07;;;;;;;8.20;4.30;;;;;;;2.67;64.26;101700.95;1771197;80;21058;-58
2022/03/01 11:31:01;;;;;;;8.75;5.15;;;;;;;2.76;63.96;101691.63;1780112;78;21080;-57
2022/03/01 11:33:36;;;;;;;9.03;4.85;;;;;;;2.67;63.99;101691.84;1780759;78;21533;-57
2022/03/01 11:36:04;;;;;;;10.13;4.97;;;;;;;2.66;64.24;101688.86;1779645;78;21048;-57
2022/03/01 11:38:32;;;;;;;10.63;4.90;;;;;;;2.74;64.17;101690.81;1781277;78;21552;-58
2022/03/01 11:41:11;;;;;;;8.75;5.00;;;;;;;2.83;64.14;101686.27;1795982;78;21067;-58
2022/03/01 11:43:38;;;;;;;11.53;5.70;;;;;;;2.89;64.02;101686.09;1785440;78;21063;-58